Yamabishimaru No.11 — JD2897 — position and weather

sailwx.info

Track history (hours):
 
Tides and Currents Weather Stations Pressure Air Temp Water Temp Dewpoint Dewpoint Depression Visibility Wind Speed Wind Dir Waves Ship Positions

Yamabishimaru No.11

Last reported at 2018-Jan-22 13:01 UTC. Time now 2018-Jan-22 13:52 UTC.
Position N 34°56' E 139°19'.

Length 65 m; draft 5 m.

Type: Tanker. MMSI: 431000903.

Date/timePositionNaut miles runAvg speedWind from/ knotsBaromVisibWave heightAir tempDewpointWater temp
2018-Jan-22 13:01N 34°56' E 139°19'2 9.3
2018-Jan-22 12:47N 34°58' E 139°21'3 9.2
2018-Jan-22 12:29N 34°60' E 139°23'6 9.0
2018-Jan-22 11:46N 35°03' E 139°30'3 9.2
2018-Jan-22 11:24N 35°04' E 139°34'4 9.6
2018-Jan-22 11:00N 35°06' E 139°38'511.0
2018-Jan-22 10:30N 35°09' E 139°43'510.9
2018-Jan-22 10:00N 35°14' E 139°46'5 9.9
2018-Jan-22 09:30N 35°18' E 139°43'510.2
2018-Jan-22 09:01N 35°23' E 139°42'510.5
2018-Jan-22 08:31N 35°27' E 139°47'610.5
2018-Jan-22 07:58N 35°30' E 139°53'510.1
2018-Jan-22 07:28N 35°30' E 139°59'2 1.5
2018-Jan-22 06:11N 35°28' E 140°01'0 0.0
2018-Jan-22 05:59N 35°28' E 140°01'0 0.0
2018-Jan-22 02:57N 35°28' E 140°01'2 4.5
2018-Jan-22 02:30N 35°30' E 139°59'1 1.2
2018-Jan-22 01:59N 35°30' E 139°58'0 0.0
2018-Jan-22 01:30N 35°30' E 139°58'0 0.0
2018-Jan-22 01:00N 35°30' E 139°58'2 3.9
2018-Jan-22 00:30N 35°29' E 139°56'510.4
2018-Jan-22 00:00N 35°27' E 139°50'510.3
2018-Jan-21 23:30N 35°23' E 139°46'510.2
2018-Jan-21 23:01N 35°18' E 139°44'510.8
2018-Jan-21 22:30N 35°13' E 139°47'510.9
2018-Jan-21 22:01N 35°08' E 139°45'510.5
2018-Jan-21 21:30N 35°04' E 139°41'510.9
2018-Jan-21 21:01N 35°02' E 139°35'611.0
2018-Jan-21 20:29N 34°60' E 139°28'811.5
2018-Jan-21 19:49N 34°56' E 139°20'411.5
2018-Jan-21 19:26N 34°54' E 139°15'711.1
2018-Jan-21 18:48N 34°48' E 139°11'4 9.6
2018-Jan-21 18:26N 34°45' E 139°08'4 9.4
2018-Jan-21 18:00N 34°42' E 139°06'7 9.5
2018-Jan-21 17:18N 34°37' E 138°60'310.0
2018-Jan-21 17:00N 34°36' E 138°57'611.0
2018-Jan-21 16:30N 34°34' E 138°50'610.5
2018-Jan-21 15:56N 34°34' E 138°43'611.1
2018-Jan-21 15:23N 34°33' E 138°36'711.5
2018-Jan-21 14:49N 34°33' E 138°28'411.8
2018-Jan-21 14:30N 34°33' E 138°23'612.1
2018-Jan-21 13:58N 34°33' E 138°16'6711.7
2018-Jan-21 08:14N 34°38' E 136°54'311.7
2018-Jan-21 08:00N 34°39' E 136°51'612.2
2018-Jan-21 07:30N 34°44' E 136°48'612.4
2018-Jan-21 07:00N 34°50' E 136°46'612.3
2018-Jan-21 06:30N 34°56' E 136°47'612.0
2018-Jan-21 06:00N 35°01' E 136°51'3 6.5
2018-Jan-21 05:30N 35°04' E 136°52'0 0.0
2018-Jan-21 05:00N 35°04' E 136°52'0 0.0
2018-Jan-21 04:30N 35°04' E 136°52'0 0.0
2018-Jan-21 04:00N 35°04' E 136°52'0 0.0
2018-Jan-21 03:30N 35°04' E 136°52'0 0.0
2018-Jan-21 03:00N 35°04' E 136°52'0 0.0
2018-Jan-21 02:30N 35°04' E 136°52'0 0.2
2018-Jan-21 02:00N 35°04' E 136°52'4 8.1
2018-Jan-21 01:30N 35°01' E 136°50'0 0.5
2018-Jan-21 01:00N 35°01' E 136°50'0 0.0
2018-Jan-21 00:30N 35°01' E 136°50'0 0.0
2018-Jan-21 00:00N 35°01' E 136°50'0 0.0
2018-Jan-20 23:30N 35°01' E 136°50'0 0.0
2018-Jan-20 23:00N 35°01' E 136°50'0 0.0
2018-Jan-20 22:30N 35°01' E 136°50'0 0.0
2018-Jan-20 22:00N 35°01' E 136°50'0 0.0
2018-Jan-20 21:30N 35°01' E 136°50'0 0.0
2018-Jan-20 21:00N 35°01' E 136°50'0 0.1
2018-Jan-20 20:30N 35°01' E 136°50'0 0.1
2018-Jan-20 20:00N 35°01' E 136°50'0 0.0
2018-Jan-20 19:30N 35°01' E 136°50'0 0.1
2018-Jan-20 19:00N 35°01' E 136°50'0 0.0
2018-Jan-20 18:30N 35°01' E 136°50'0 0.0
2018-Jan-20 18:00N 35°01' E 136°50'0 0.0
2018-Jan-20 17:30N 35°01' E 136°50'0 0.0
2018-Jan-20 17:00N 35°01' E 136°50'0 0.1
2018-Jan-20 16:30N 35°01' E 136°50'0 0.0
2018-Jan-20 16:00N 35°01' E 136°50'0 0.1
2018-Jan-20 15:30N 35°01' E 136°50'0 0.0
2018-Jan-20 15:00N 35°01' E 136°50'0 0.0
2018-Jan-20 14:30N 35°01' E 136°50'1 1.1
2018-Jan-20 14:00N 35°00' E 136°50'5 9.5
2018-Jan-20 13:30N 34°56' E 136°47'5 9.8
2018-Jan-20 13:00N 34°51' E 136°47'77 8.3
2018-Jan-20 03:44N 34°37' E 138°19'311.0
2018-Jan-20 03:30N 34°40' E 138°20'611.2
2018-Jan-20 02:58N 34°45' E 138°24'511.4
2018-Jan-20 02:30N 34°50' E 138°27'611.9
2018-Jan-20 02:00N 34°55' E 138°30'612.0
2018-Jan-20 01:30N 35°00' E 138°33'3 5.4
2018-Jan-20 01:00N 35°02' E 138°30'0 0.0
2018-Jan-20 00:30N 35°02' E 138°30'0 0.0
2018-Jan-20 00:00N 35°02' E 138°30'0 0.0
2018-Jan-19 23:30N 35°02' E 138°30'0 0.0
2018-Jan-19 23:00N 35°02' E 138°30'0 0.0
2018-Jan-19 22:30N 35°02' E 138°30'0 0.0
2018-Jan-19 22:00N 35°02' E 138°30'0 0.5
2018-Jan-19 21:30N 35°02' E 138°30'0 0.0
2018-Jan-19 21:00N 35°02' E 138°30'0 0.0
2018-Jan-19 20:30N 35°02' E 138°30'0 0.0
2018-Jan-19 20:00N 35°02' E 138°30'0 0.1
2018-Jan-19 19:30N 35°02' E 138°30'2 4.1
2018-Jan-19 19:00N 35°01' E 138°33'5 9.4
2018-Jan-19 18:30N 34°57' E 138°31'510.3
2018-Jan-19 18:00N 34°52' E 138°28'510.7
2018-Jan-19 17:30N 34°47' E 138°25'510.7
2018-Jan-19 17:00N 34°43' E 138°22'611.1
2018-Jan-19 16:26N 34°37' E 138°18'510.6
2018-Jan-19 16:00N 34°34' E 138°14'611.5
2018-Jan-19 15:29N 34°33' E 138°07'4112.1
2018-Jan-19 12:06N 34°32' E 137°17'211.6
2018-Jan-19 11:57N 34°32' E 137°15'1811.3
2018-Jan-19 10:22N 34°37' E 136°54'511.9
2018-Jan-19 10:00N 34°40' E 136°50'612.0
2018-Jan-19 09:30N 34°45' E 136°47'612.0
2018-Jan-19 09:00N 34°51' E 136°44'611.9
2018-Jan-19 08:30N 34°57' E 136°42'3 5.8
2018-Jan-19 08:00N 34°59' E 136°39'0 0.0
2018-Jan-19 07:30N 34°59' E 136°39'0 0.0
2018-Jan-19 07:00N 34°59' E 136°39'0 0.0
2018-Jan-19 06:30N 34°59' E 136°39'0 0.0
2018-Jan-19 06:00N 34°59' E 136°39'0 0.0
2018-Jan-19 05:30N 34°59' E 136°39'0 0.0
2018-Jan-19 05:00N 34°59' E 136°39'0 0.0
2018-Jan-19 04:30N 34°59' E 136°39'0 0.0
2018-Jan-19 04:00N 34°59' E 136°39'0 0.0
2018-Jan-19 03:30N 34°59' E 136°39'1 1.0
2018-Jan-19 03:00N 34°58' E 136°40'1 1.5
2018-Jan-19 02:29N 34°58' E 136°40'0 0.0
2018-Jan-19 01:57N 34°58' E 136°40'0 0.0
2018-Jan-19 01:30N 34°58' E 136°40'0 0.0
2018-Jan-19 00:57N 34°58' E 136°40'0 0.1
2018-Jan-19 00:27N 34°58' E 136°40'0 0.0
2018-Jan-18 23:57N 34°58' E 136°40'0 0.0
2018-Jan-18 23:30N 34°58' E 136°40'0 0.0
2018-Jan-18 23:00N 34°58' E 136°40'0 0.0
2018-Jan-18 22:27N 34°58' E 136°40'0 0.0
2018-Jan-18 22:00N 34°58' E 136°40'0 0.9
2018-Jan-18 21:30N 34°57' E 136°41'510.1
2018-Jan-18 21:00N 34°53' E 136°43'510.2
2018-Jan-18 20:30N 34°48' E 136°46'27 9.5
2018-Jan-18 17:42N 34°34' E 137°13'63 8.4
2018-Jan-18 10:13N 34°39' E 138°30'4 7.1
2018-Jan-18 09:42N 34°39' E 138°34'2 6.9
2018-Jan-18 09:28N 34°39' E 138°36'3 6.7
2018-Jan-18 09:00N 34°38' E 138°40'4 6.8
2018-Jan-18 08:20N 34°36' E 138°45'3 6.6
2018-Jan-18 07:56N 34°36' E 138°48'5 5.7
2018-Jan-18 07:05N 34°36' E 138°54'1 6.1
2018-Jan-18 07:00N 34°36' E 138°55'4 7.2
2018-Jan-18 06:27N 34°38' E 138°59'4 9.1
2018-Jan-18 06:00N 34°41' E 139°02'7 9.0
2018-Jan-18 05:10N 34°47' E 139°07'15 9.4
2018-Jan-18 03:35N 34°57' E 139°20'2 9.1
2018-Jan-18 03:23N 34°58' E 139°22'5 9.3
2018-Jan-18 02:54N 35°00' E 139°27'4 9.1
2018-Jan-18 02:30N 35°02' E 139°31'5 9.4
2018-Jan-18 01:59N 35°05' E 139°36'5 9.8
2018-Jan-18 01:31N 35°07' E 139°41'5 9.9
2018-Jan-18 01:01N 35°11' E 139°45'1010.1
2018-Jan-18 00:01N 35°21' E 139°42'111.3
2018-Jan-17 23:58N 35°21' E 139°42'  
2018-Jan-12 14:59N 35°29' E 139°49'2 4.3
2018-Jan-12 14:30N 35°27' E 139°48'611.2
2018-Jan-12 14:01N 35°22' E 139°45'510.5
2018-Jan-12 13:31N 35°16' E 139°46'  
Track history (hours):
 
Tides and Currents Weather Stations Pressure Air Temp Water Temp Dewpoint Dewpoint Depression Visibility Wind Speed Wind Dir Waves Ship Positions

Yamabishimaru No.11

Last reported at 2018-Jan-22 13:01 UTC. Time now 2018-Jan-22 13:52 UTC.
Position N 34°56' E 139°19'.

Length 65 m; draft 5 m.

Type: Tanker. MMSI: 431000903.

Date/timePositionNaut miles runAvg speedWind from/ knotsBaromVisibWave heightAir tempDewpointWater temp
2018-Jan-22 13:01N 34°56' E 139°19'2 9.3
2018-Jan-22 12:47N 34°58' E 139°21'3 9.2
2018-Jan-22 12:29N 34°60' E 139°23'6 9.0
2018-Jan-22 11:46N 35°03' E 139°30'3 9.2
2018-Jan-22 11:24N 35°04' E 139°34'4 9.6
2018-Jan-22 11:00N 35°06' E 139°38'511.0
2018-Jan-22 10:30N 35°09' E 139°43'510.9
2018-Jan-22 10:00N 35°14' E 139°46'5 9.9
2018-Jan-22 09:30N 35°18' E 139°43'510.2
2018-Jan-22 09:01N 35°23' E 139°42'510.5
2018-Jan-22 08:31N 35°27' E 139°47'610.5
2018-Jan-22 07:58N 35°30' E 139°53'510.1
2018-Jan-22 07:28N 35°30' E 139°59'2 1.5
2018-Jan-22 06:11N 35°28' E 140°01'0 0.0
2018-Jan-22 05:59N 35°28' E 140°01'0 0.0
2018-Jan-22 02:57N 35°28' E 140°01'2 4.5
2018-Jan-22 02:30N 35°30' E 139°59'1 1.2
2018-Jan-22 01:59N 35°30' E 139°58'0 0.0
2018-Jan-22 01:30N 35°30' E 139°58'0 0.0
2018-Jan-22 01:00N 35°30' E 139°58'2 3.9
2018-Jan-22 00:30N 35°29' E 139°56'510.4
2018-Jan-22 00:00N 35°27' E 139°50'510.3
2018-Jan-21 23:30N 35°23' E 139°46'510.2
2018-Jan-21 23:01N 35°18' E 139°44'510.8
2018-Jan-21 22:30N 35°13' E 139°47'510.9
2018-Jan-21 22:01N 35°08' E 139°45'510.5
2018-Jan-21 21:30N 35°04' E 139°41'510.9
2018-Jan-21 21:01N 35°02' E 139°35'611.0
2018-Jan-21 20:29N 34°60' E 139°28'811.5
2018-Jan-21 19:49N 34°56' E 139°20'411.5
2018-Jan-21 19:26N 34°54' E 139°15'711.1
2018-Jan-21 18:48N 34°48' E 139°11'4 9.6
2018-Jan-21 18:26N 34°45' E 139°08'4 9.4
2018-Jan-21 18:00N 34°42' E 139°06'7 9.5
2018-Jan-21 17:18N 34°37' E 138°60'310.0
2018-Jan-21 17:00N 34°36' E 138°57'611.0
2018-Jan-21 16:30N 34°34' E 138°50'610.5
2018-Jan-21 15:56N 34°34' E 138°43'611.1
2018-Jan-21 15:23N 34°33' E 138°36'711.5
2018-Jan-21 14:49N 34°33' E 138°28'411.8
2018-Jan-21 14:30N 34°33' E 138°23'612.1
2018-Jan-21 13:58N 34°33' E 138°16'6711.7
2018-Jan-21 08:14N 34°38' E 136°54'311.7
2018-Jan-21 08:00N 34°39' E 136°51'612.2
2018-Jan-21 07:30N 34°44' E 136°48'612.4
2018-Jan-21 07:00N 34°50' E 136°46'612.3
2018-Jan-21 06:30N 34°56' E 136°47'612.0
2018-Jan-21 06:00N 35°01' E 136°51'3 6.5
2018-Jan-21 05:30N 35°04' E 136°52'0 0.0
2018-Jan-21 05:00N 35°04' E 136°52'0 0.0
2018-Jan-21 04:30N 35°04' E 136°52'0 0.0
2018-Jan-21 04:00N 35°04' E 136°52'0 0.0
2018-Jan-21 03:30N 35°04' E 136°52'0 0.0
2018-Jan-21 03:00N 35°04' E 136°52'0 0.0
2018-Jan-21 02:30N 35°04' E 136°52'0 0.2
2018-Jan-21 02:00N 35°04' E 136°52'4 8.1
2018-Jan-21 01:30N 35°01' E 136°50'0 0.5
2018-Jan-21 01:00N 35°01' E 136°50'0 0.0
2018-Jan-21 00:30N 35°01' E 136°50'0 0.0
2018-Jan-21 00:00N 35°01' E 136°50'0 0.0
2018-Jan-20 23:30N 35°01' E 136°50'0 0.0
2018-Jan-20 23:00N 35°01' E 136°50'0 0.0
2018-Jan-20 22:30N 35°01' E 136°50'0 0.0
2018-Jan-20 22:00N 35°01' E 136°50'0 0.0
2018-Jan-20 21:30N 35°01' E 136°50'0 0.0
2018-Jan-20 21:00N 35°01' E 136°50'0 0.1
2018-Jan-20 20:30N 35°01' E 136°50'0 0.1
2018-Jan-20 20:00N 35°01' E 136°50'0 0.0
2018-Jan-20 19:30N 35°01' E 136°50'0 0.1
2018-Jan-20 19:00N 35°01' E 136°50'0 0.0
2018-Jan-20 18:30N 35°01' E 136°50'0 0.0
2018-Jan-20 18:00N 35°01' E 136°50'0 0.0
2018-Jan-20 17:30N 35°01' E 136°50'0 0.0
2018-Jan-20 17:00N 35°01' E 136°50'0 0.1
2018-Jan-20 16:30N 35°01' E 136°50'0 0.0
2018-Jan-20 16:00N 35°01' E 136°50'0 0.1
2018-Jan-20 15:30N 35°01' E 136°50'0 0.0
2018-Jan-20 15:00N 35°01' E 136°50'0 0.0
2018-Jan-20 14:30N 35°01' E 136°50'1 1.1
2018-Jan-20 14:00N 35°00' E 136°50'5 9.5
2018-Jan-20 13:30N 34°56' E 136°47'5 9.8
2018-Jan-20 13:00N 34°51' E 136°47'77 8.3
2018-Jan-20 03:44N 34°37' E 138°19'311.0
2018-Jan-20 03:30N 34°40' E 138°20'611.2
2018-Jan-20 02:58N 34°45' E 138°24'511.4
2018-Jan-20 02:30N 34°50' E 138°27'611.9
2018-Jan-20 02:00N 34°55' E 138°30'612.0
2018-Jan-20 01:30N 35°00' E 138°33'3 5.4
2018-Jan-20 01:00N 35°02' E 138°30'0 0.0
2018-Jan-20 00:30N 35°02' E 138°30'0 0.0
2018-Jan-20 00:00N 35°02' E 138°30'0 0.0
2018-Jan-19 23:30N 35°02' E 138°30'0 0.0
2018-Jan-19 23:00N 35°02' E 138°30'0 0.0
2018-Jan-19 22:30N 35°02' E 138°30'0 0.0
2018-Jan-19 22:00N 35°02' E 138°30'0 0.5
2018-Jan-19 21:30N 35°02' E 138°30'0 0.0
2018-Jan-19 21:00N 35°02' E 138°30'0 0.0
2018-Jan-19 20:30N 35°02' E 138°30'0 0.0
2018-Jan-19 20:00N 35°02' E 138°30'0 0.1
2018-Jan-19 19:30N 35°02' E 138°30'2 4.1
2018-Jan-19 19:00N 35°01' E 138°33'5 9.4
2018-Jan-19 18:30N 34°57' E 138°31'510.3
2018-Jan-19 18:00N 34°52' E 138°28'510.7
2018-Jan-19 17:30N 34°47' E 138°25'510.7
2018-Jan-19 17:00N 34°43' E 138°22'611.1
2018-Jan-19 16:26N 34°37' E 138°18'510.6
2018-Jan-19 16:00N 34°34' E 138°14'611.5
2018-Jan-19 15:29N 34°33' E 138°07'4112.1
2018-Jan-19 12:06N 34°32' E 137°17'211.6
2018-Jan-19 11:57N 34°32' E 137°15'1811.3
2018-Jan-19 10:22N 34°37' E 136°54'511.9
2018-Jan-19 10:00N 34°40' E 136°50'612.0
2018-Jan-19 09:30N 34°45' E 136°47'612.0
2018-Jan-19 09:00N 34°51' E 136°44'611.9
2018-Jan-19 08:30N 34°57' E 136°42'3 5.8
2018-Jan-19 08:00N 34°59' E 136°39'0 0.0
2018-Jan-19 07:30N 34°59' E 136°39'0 0.0
2018-Jan-19 07:00N 34°59' E 136°39'0 0.0
2018-Jan-19 06:30N 34°59' E 136°39'0 0.0
2018-Jan-19 06:00N 34°59' E 136°39'0 0.0
2018-Jan-19 05:30N 34°59' E 136°39'0 0.0
2018-Jan-19 05:00N 34°59' E 136°39'0 0.0
2018-Jan-19 04:30N 34°59' E 136°39'0 0.0
2018-Jan-19 04:00N 34°59' E 136°39'0 0.0
2018-Jan-19 03:30N 34°59' E 136°39'1 1.0
2018-Jan-19 03:00N 34°58' E 136°40'1 1.5
2018-Jan-19 02:29N 34°58' E 136°40'0 0.0
2018-Jan-19 01:57N 34°58' E 136°40'0 0.0
2018-Jan-19 01:30N 34°58' E 136°40'0 0.0
2018-Jan-19 00:57N 34°58' E 136°40'0 0.1
2018-Jan-19 00:27N 34°58' E 136°40'0 0.0
2018-Jan-18 23:57N 34°58' E 136°40'0 0.0
2018-Jan-18 23:30N 34°58' E 136°40'0 0.0
2018-Jan-18 23:00N 34°58' E 136°40'0 0.0
2018-Jan-18 22:27N 34°58' E 136°40'0 0.0
2018-Jan-18 22:00N 34°58' E 136°40'0 0.9
2018-Jan-18 21:30N 34°57' E 136°41'510.1
2018-Jan-18 21:00N 34°53' E 136°43'510.2
2018-Jan-18 20:30N 34°48' E 136°46'27 9.5
2018-Jan-18 17:42N 34°34' E 137°13'63 8.4
2018-Jan-18 10:13N 34°39' E 138°30'4 7.1
2018-Jan-18 09:42N 34°39' E 138°34'2 6.9
2018-Jan-18 09:28N 34°39' E 138°36'3 6.7
2018-Jan-18 09:00N 34°38' E 138°40'4 6.8
2018-Jan-18 08:20N 34°36' E 138°45'3 6.6
2018-Jan-18 07:56N 34°36' E 138°48'5 5.7
2018-Jan-18 07:05N 34°36' E 138°54'1 6.1
2018-Jan-18 07:00N 34°36' E 138°55'4 7.2
2018-Jan-18 06:27N 34°38' E 138°59'4 9.1
2018-Jan-18 06:00N 34°41' E 139°02'7 9.0
2018-Jan-18 05:10N 34°47' E 139°07'15 9.4
2018-Jan-18 03:35N 34°57' E 139°20'2 9.1
2018-Jan-18 03:23N 34°58' E 139°22'5 9.3
2018-Jan-18 02:54N 35°00' E 139°27'4 9.1
2018-Jan-18 02:30N 35°02' E 139°31'5 9.4
2018-Jan-18 01:59N 35°05' E 139°36'5 9.8
2018-Jan-18 01:31N 35°07' E 139°41'5 9.9
2018-Jan-18 01:01N 35°11' E 139°45'1010.1
2018-Jan-18 00:01N 35°21' E 139°42'111.3
2018-Jan-17 23:58N 35°21' E 139°42'  
2018-Jan-12 14:59N 35°29' E 139°49'2 4.3
2018-Jan-12 14:30N 35°27' E 139°48'611.2
2018-Jan-12 14:01N 35°22' E 139°45'510.5
2018-Jan-12 13:31N 35°16' E 139°46'  

Dump ship's entire track history